Time;durP1;ratioP1;P1;durP2;ratioP2;P2;SDS_P1;SDS_P2;PMS_P1;PMS_P2;Temp;Humidity;BMP_temperature;BMP_pressure;BME280_temperature;BME280_humidity;BME280_pressure;Samples;Min_cycle;Max_cycle;Signal;HPM_P1;HPM_P2
2023/02/03 00:01:27;;;;;;;1.20;1.10;;;0.40;99.90;;;;;;5015234;28;20525;-82
2023/02/03 00:03:53;;;;;;;1.10;1.10;;;0.40;99.90;;;;;;4999435;28;20185;-82
2023/02/03 00:06:18;;;;;;;1.87;1.70;;;0.40;99.90;;;;;;5015617;28;20263;-83
2023/02/03 00:08:44;;;;;;;2.43;1.80;;;0.40;99.90;;;;;;5033439;28;20212;-82
2023/02/03 00:11:10;;;;;;;5.30;1.87;;;0.30;99.90;;;;;;4999280;28;20671;-82
2023/02/03 00:13:36;;;;;;;1.43;1.33;;;0.30;99.90;;;;;;4999408;28;20189;-82
2023/02/03 00:16:01;;;;;;;2.77;1.67;;;0.20;99.90;;;;;;5033191;28;20180;-82
2023/02/03 00:18:27;;;;;;;1.70;1.20;;;0.30;99.90;;;;;;5015482;28;20521;-81
2023/02/03 00:20:53;;;;;;;1.73;1.63;;;0.20;99.90;;;;;;5033260;28;20704;-82
2023/02/03 00:23:18;;;;;;;2.33;2.13;;;0.30;99.90;;;;;;5015679;28;20189;-82
2023/02/03 00:25:44;;;;;;;2.77;2.13;;;0.20;99.90;;;;;;5033032;28;20216;-82
2023/02/03 00:28:10;;;;;;;1.63;1.53;;;0.30;99.90;;;;;;5015297;28;20654;-82
2023/02/03 00:30:36;;;;;;;2.67;1.97;;;0.30;99.90;;;;;;5033131;28;20264;-82
2023/02/03 00:33:04;;;;;;;4.10;1.73;;;0.30;99.90;;;;;;5015095;28;20209;-82
2023/02/03 00:35:30;;;;;;;4.07;1.63;;;0.30;99.90;;;;;;5032849;28;20181;-82
2023/02/03 00:37:56;;;;;;;1.77;1.67;;;0.30;99.90;;;;;;5033159;28;20187;-82
2023/02/03 00:40:24;;;;;;;3.87;2.70;;;0.30;99.90;;;;;;5033119;28;20265;-82
2023/02/03 00:42:50;;;;;;;1.87;1.60;;;0.30;99.90;;;;;;5033072;28;20180;-85
2023/02/03 00:45:16;;;;;;;1.50;1.40;;;0.30;99.90;;;;;;4999104;28;20656;-83
2023/02/03 00:47:41;;;;;;;3.57;2.00;;;0.30;99.90;;;;;;4999063;28;20192;-82
2023/02/03 00:50:08;;;;;;;1.10;1.10;;;0.30;99.90;;;;;;5015274;28;20174;-83
2023/02/03 00:52:34;;;;;;;2.30;2.03;;;0.30;99.90;;;;;;5015596;28;20214;-82
2023/02/03 00:54:59;;;;;;;3.40;2.23;;;0.30;99.90;;;;;;5015100;28;20186;-83
2023/02/03 00:57:25;;;;;;;3.67;1.77;;;0.10;99.90;;;;;;5015431;28;20180;-82
2023/02/03 00:59:51;;;;;;;1.30;1.20;;;0.20;99.90;;;;;;5015221;28;20188;-81
2023/02/03 01:02:16;;;;;;;1.17;1.13;;;0.20;99.90;;;;;;4998852;28;20191;-82
2023/02/03 01:04:43;;;;;;;1.97;1.73;;;0.10;99.90;;;;;;4998835;28;20192;-82
2023/02/03 01:07:09;;;;;;;1.97;1.80;;;0.10;99.90;;;;;;5032960;28;20192;-81
2023/02/03 01:09:36;;;;;;;2.57;2.27;;;0.10;99.90;;;;;;5032940;28;20182;-82
2023/02/03 01:12:02;;;;;;;2.23;2.03;;;0.00;99.90;;;;;;5016842;28;20544;-82
2023/02/03 01:14:28;;;;;;;1.53;1.43;;;0.10;99.90;;;;;;5019169;28;20279;-82
2023/02/03 01:16:54;;;;;;;1.97;1.40;;;0.00;99.90;;;;;;5018649;28;20211;-85
2023/02/03 01:19:20;;;;;;;4.17;2.80;;;0.00;99.90;;;;;;5036082;28;20185;-83
2023/02/03 01:21:45;;;;;;;1.20;1.20;;;0.10;99.90;;;;;;5018867;28;20211;-82
2023/02/03 01:24:13;;;;;;;1.70;1.40;;;0.00;99.90;;;;;;5018406;28;20275;-82
2023/02/03 01:26:40;;;;;;;5.57;2.77;;;0.30;99.90;;;;;;5036380;28;20677;-81
2023/02/03 01:29:06;;;;;;;2.93;2.50;;;0.00;99.90;;;;;;5035926;28;20554;-82
2023/02/03 01:31:35;;;;;;;3.90;2.90;;;0.00;99.90;;;;;;5018524;28;20205;-82
2023/02/03 01:34:02;;;;;;;2.63;2.43;;;0.00;99.90;;;;;;5036097;28;20183;-82
2023/02/03 01:36:30;;;;;;;1.97;1.67;;;0.00;99.90;;;;;;5018290;28;20206;-82
2023/02/03 01:38:56;;;;;;;4.10;2.13;;;0.10;99.90;;;;;;5036174;28;20180;-82
2023/02/03 01:41:31;;;;;;;1.50;1.40;;;0.40;99.90;;;;;;5018640;28;20532;-82
2023/02/03 01:43:58;;;;;;;3.23;2.70;;;0.00;99.90;;;;;;5036185;28;20243;-82
2023/02/03 01:46:48;;;;;;;2.30;1.87;;;0.00;99.90;;;;;;5018412;28;20183;-82
2023/02/03 01:49:22;;;;;;;1.83;1.73;;;-0.10;99.90;;;;;;5035856;28;20168;-82
2023/02/03 01:51:49;;;;;;;2.17;2.03;;;0.00;99.90;;;;;;5036188;28;20233;-82
2023/02/03 01:54:27;;;;;;;4.10;2.83;;;0.30;99.90;;;;;;5018235;28;20180;-82
2023/02/03 01:56:57;;;;;;;1.60;1.50;;;0.00;99.90;;;;;;5018399;28;20533;-82
2023/02/03 01:59:24;;;;;;;1.17;1.13;;;-0.10;99.90;;;;;;5035414;28;20231;-83
2023/02/03 02:01:53;;;;;;;2.60;1.87;;;-0.10;99.90;;;;;;5018070;28;20206;-82
2023/02/03 02:04:21;;;;;;;5.23;2.83;;;-0.10;99.90;;;;;;5034056;28;20176;-82
2023/02/03 02:06:47;;;;;;;2.57;2.03;;;-0.10;99.90;;;;;;5034186;28;20176;-83
2023/02/03 02:09:14;;;;;;;2.23;1.83;;;-0.20;99.90;;;;;;5017096;28;20177;-82
2023/02/03 02:11:39;;;;;;;4.13;1.47;;;-0.10;99.90;;;;;;5000621;28;20208;-82
2023/02/03 02:14:06;;;;;;;4.57;2.83;;;-0.20;99.90;;;;;;5016974;28;20238;-82
2023/02/03 02:16:31;;;;;;;1.67;1.57;;;-0.20;99.90;;;;;;5017430;28;20196;-83
2023/02/03 02:19:16;;;;;;;2.57;2.37;;;-0.20;99.90;;;;;;5016703;28;20664;-82
2023/02/03 02:22:07;;;;;;;3.03;2.20;;;-0.20;99.90;;;;;;5016744;28;20192;-82
2023/02/03 02:25:17;;;;;;;3.23;2.20;;;-0.20;99.90;;;;;;5033134;28;20191;-83
2023/02/03 02:28:20;;;;;;;1.73;1.63;;;-0.30;99.90;;;;;;4936826;29;20707;-83
2023/02/03 02:31:15;;;;;;;1.83;1.73;;;-0.30;99.90;;;;;;5026499;28;20196;-83
2023/02/03 02:33:48;;;;;;;3.57;1.90;;;-0.30;99.90;;;;;;5034834;28;20652;-82
2023/02/03 02:36:32;;;;;;;2.47;2.30;;;-0.30;99.90;;;;;;5034950;28;20252;-83
2023/02/03 02:39:26;;;;;;;2.40;1.90;;;-0.30;99.90;;;;;;5016670;28;20207;-82
2023/02/03 02:41:59;;;;;;;5.03;3.27;;;-0.30;99.90;;;;;;5017209;28;20287;-82
2023/02/03 02:44:40;;;;;;;1.83;1.80;;;-0.20;99.90;;;;;;5034794;28;20187;-82
2023/02/03 02:47:15;;;;;;;2.10;2.00;;;-0.20;99.90;;;;;;5034513;28;20540;-83
2023/02/03 02:50:04;;;;;;;1.73;1.27;;;-0.10;99.90;;;;;;5017131;28;20187;-83
2023/02/03 02:52:33;;;;;;;3.50;2.00;;;-0.10;99.90;;;;;;5016835;28;20196;-82
2023/02/03 02:55:10;;;;;;;2.00;1.80;;;-0.10;99.90;;;;;;5016998;28;20199;-83
2023/02/03 02:57:37;;;;;;;1.90;1.80;;;-0.20;99.90;;;;;;5034975;28;20639;-83
2023/02/03 03:00:05;;;;;;;1.87;1.73;;;-0.10;99.90;;;;;;5017005;28;20195;-82
2023/02/03 03:02:33;;;;;;;1.60;1.50;;;-0.10;99.90;;;;;;5034438;28;20246;-83
2023/02/03 03:05:00;;;;;;;3.20;1.87;;;-0.10;99.90;;;;;;5034637;28;20213;-83
2023/02/03 03:07:28;;;;;;;2.13;1.93;;;-0.10;99.90;;;;;;5034241;28;20242;-83
2023/02/03 03:09:59;;;;;;;1.70;1.60;;;-0.10;99.90;;;;;;5034557;28;20663;-82
2023/02/03 03:12:33;;;;;;;2.70;2.20;;;0.00;99.90;;;;;;4999440;28;20597;-82
2023/02/03 03:15:21;;;;;;;2.47;2.10;;;0.00;99.90;;;;;;5016846;28;20182;-81
2023/02/03 03:18:02;;;;;;;3.00;2.27;;;0.00;99.90;;;;;;5034613;28;20307;-82
2023/02/03 03:20:31;;;;;;;2.40;2.17;;;0.00;99.90;;;;;;5012810;28;20678;-81
2023/02/03 03:23:12;;;;;;;3.10;1.57;;;0.00;99.90;;;;;;5014532;28;20177;-81
2023/02/03 03:25:47;;;;;;;2.27;2.03;;;0.20;99.90;;;;;;5014260;28;20172;-81
2023/02/03 03:28:19;;;;;;;1.23;1.13;;;0.30;99.90;;;;;;5013078;28;20180;-82
2023/02/03 03:30:45;;;;;;;1.77;1.67;;;0.00;99.90;;;;;;5014816;28;20620;-82
2023/02/03 03:33:11;;;;;;;1.63;1.63;;;0.00;99.90;;;;;;5012561;28;20209;-82
2023/02/03 03:36:01;;;;;;;2.27;1.97;;;0.00;99.90;;;;;;5012185;28;20188;-81
2023/02/03 03:38:38;;;;;;;2.27;2.07;;;0.50;99.90;;;;;;5006992;28;20199;-81
2023/02/03 03:41:28;;;;;;;1.50;1.50;;;0.00;99.90;;;;;;4975370;28;20604;-81
2023/02/03 03:44:00;;;;;;;2.00;1.60;;;0.00;99.90;;;;;;4975248;28;20203;-81
2023/02/03 03:46:30;;;;;;;1.67;1.57;;;0.10;99.90;;;;;;4973671;28;20269;-82
2023/02/03 03:49:01;;;;;;;8.67;2.30;;;0.10;99.90;;;;;;4975422;28;20547;-81
2023/02/03 03:51:40;;;;;;;2.30;2.10;;;0.10;99.90;;;;;;4973579;28;20269;-81
2023/02/03 03:54:12;;;;;;;1.63;1.53;;;0.10;99.90;;;;;;4974760;28;20182;-82
2023/02/03 03:56:55;;;;;;;1.97;1.90;;;0.10;99.90;;;;;;4974606;28;20198;-82
2023/02/03 03:59:23;;;;;;;1.77;1.57;;;0.10;99.90;;;;;;4974673;28;20187;-82
2023/02/03 04:01:50;;;;;;;1.73;1.63;;;0.10;99.90;;;;;;4973613;28;20190;-81
2023/02/03 04:04:16;;;;;;;2.63;2.40;;;0.10;99.90;;;;;;4974610;28;20266;-82
2023/02/03 04:06:42;;;;;;;2.10;1.90;;;0.10;99.90;;;;;;4973729;28;20194;-82
2023/02/03 04:09:08;;;;;;;1.80;1.70;;;0.30;99.90;;;;;;4957463;28;20182;-81
2023/02/03 04:14:17;;;;;;;2.73;2.10;;;0.10;99.90;;;;;;4974420;28;20258;-82
2023/02/03 04:16:43;;;;;;;3.17;2.10;;;0.20;99.90;;;;;;4973463;28;20348;-82
2023/02/03 04:19:08;;;;;;;1.70;1.60;;;0.10;99.90;;;;;;4956889;28;20229;-81
2023/02/03 04:21:34;;;;;;;1.90;1.67;;;0.10;99.90;;;;;;4975816;28;20234;-81
2023/02/03 04:24:00;;;;;;;2.90;2.17;;;0.10;99.90;;;;;;4994095;28;20186;-82
2023/02/03 04:26:25;;;;;;;2.40;2.13;;;0.10;99.90;;;;;;4976298;28;20190;-82
2023/02/03 04:28:51;;;;;;;3.67;2.30;;;0.20;99.90;;;;;;4992432;28;20184;-82
2023/02/03 04:31:17;;;;;;;1.17;1.13;;;0.10;99.90;;;;;;4993573;28;20217;-84
2023/02/03 04:33:42;;;;;;;2.10;2.00;;;0.50;99.90;;;;;;4976311;28;20191;-82
2023/02/03 04:36:08;;;;;;;4.33;1.47;;;0.10;99.90;;;;;;4996239;28;20227;-83
2023/02/03 04:38:34;;;;;;;3.37;1.83;;;0.10;99.90;;;;;;5012142;28;20231;-82
2023/02/03 04:40:59;;;;;;;1.57;1.33;;;0.10;99.90;;;;;;5013358;28;20662;-82
2023/02/03 04:43:25;;;;;;;0.83;0.83;;;0.10;99.90;;;;;;5012338;28;20698;-83
2023/02/03 04:45:50;;;;;;;1.10;1.10;;;2.20;99.90;;;;;;5021730;28;20630;-82
2023/02/03 04:48:16;;;;;;;1.77;1.67;;;0.20;99.90;;;;;;5032665;28;20606;-81
2023/02/03 04:50:42;;;;;;;2.43;2.23;;;0.30;99.90;;;;;;5015677;28;20280;-82
2023/02/03 04:53:07;;;;;;;3.60;1.70;;;0.10;99.90;;;;;;5016727;28;20216;-82
2023/02/03 04:55:33;;;;;;;3.63;2.50;;;0.10;99.90;;;;;;5014955;28;20235;-82
2023/02/03 04:58:00;;;;;;;2.30;2.10;;;0.10;99.90;;;;;;5017073;28;20188;-82
2023/02/03 05:00:27;;;;;;;2.67;2.47;;;0.30;99.90;;;;;;5016895;28;20181;-82
2023/02/03 05:02:53;;;;;;;1.57;1.53;;;0.10;99.90;;;;;;5010693;28;20188;-84
2023/02/03 05:05:20;;;;;;;1.47;1.37;;;0.10;99.90;;;;;;5013497;28;20185;-82
2023/02/03 05:07:45;;;;;;;5.60;2.73;;;0.20;99.90;;;;;;5015666;28;20181;-83
2023/02/03 05:10:11;;;;;;;2.67;2.40;;;0.10;99.90;;;;;;5016007;28;20538;-82
2023/02/03 05:12:37;;;;;;;2.30;2.10;;;0.10;99.90;;;;;;5015879;28;20360;-83
2023/02/03 05:15:03;;;;;;;1.77;1.67;;;0.10;99.90;;;;;;5014217;28;20192;-83
2023/02/03 05:17:28;;;;;;;1.60;1.50;;;0.10;99.90;;;;;;5017163;28;20752;-83
2023/02/03 05:19:54;;;;;;;3.67;2.63;;;0.10;99.90;;;;;;5019692;28;20267;-84
2023/02/03 05:22:20;;;;;;;2.87;2.57;;;0.10;99.90;;;;;;5026808;28;20642;-85
2023/02/03 05:24:45;;;;;;;2.77;2.23;;;0.10;99.90;;;;;;5027235;28;20243;-85
2023/02/03 05:27:11;;;;;;;2.00;1.90;;;0.10;99.90;;;;;;4981821;28;20688;-84
2023/02/03 05:29:37;;;;;;;14.53;3.67;;;0.10;99.90;;;;;;5028322;28;20200;-84
2023/02/03 05:32:02;;;;;;;2.70;2.40;;;0.20;99.90;;;;;;5013088;28;20554;-84
2023/02/03 05:34:28;;;;;;;2.23;2.13;;;0.10;99.90;;;;;;5014373;28;20193;-83
2023/02/03 05:36:54;;;;;;;2.60;2.40;;;0.00;99.90;;;;;;5033470;28;20784;-82
2023/02/03 05:39:20;;;;;;;2.20;2.00;;;0.10;99.90;;;;;;5000449;28;20221;-84
2023/02/03 05:41:51;;;;;;;4.07;2.33;;;0.10;99.90;;;;;;5026938;28;20255;-83
2023/02/03 05:44:27;;;;;;;4.00;2.00;;;0.00;99.90;;;;;;5000884;28;20185;-84
2023/02/03 05:46:54;;;;;;;1.30;1.27;;;0.00;99.90;;;;;;5031899;28;20192;-83
2023/02/03 05:49:22;;;;;;;2.23;1.83;;;0.10;99.90;;;;;;5034650;28;20180;-84
2023/02/03 05:51:48;;;;;;;3.17;2.20;;;0.10;99.90;;;;;;5016156;28;20235;-84
2023/02/03 05:54:14;;;;;;;2.70;2.30;;;0.10;99.90;;;;;;5016446;28;20184;-84
2023/02/03 05:56:40;;;;;;;3.20;2.23;;;0.00;99.90;;;;;;4999832;28;20197;-83
2023/02/03 05:59:06;;;;;;;2.17;1.93;;;0.10;99.90;;;;;;5014843;28;20189;-84
2023/02/03 06:01:32;;;;;;;1.90;1.80;;;0.10;99.90;;;;;;5032535;28;20215;-83
2023/02/03 06:03:59;;;;;;;8.27;2.13;;;0.10;99.90;;;;;;5016004;28;20299;-84
2023/02/03 06:06:26;;;;;;;1.47;1.37;;;;;;;;;;5009152;28;20219;-85
2023/02/03 06:08:55;;;;;;;1.63;1.53;;;0.20;99.90;;;;;;4999893;28;20188;-86
2023/02/03 06:11:23;;;;;;;2.87;2.30;;;0.20;99.90;;;;;;5001652;28;20201;-84
2023/02/03 06:13:49;;;;;;;1.90;1.80;;;;;;;;;;4983260;28;20662;-85
2023/02/03 06:16:14;;;;;;;2.13;1.60;;;0.10;99.90;;;;;;5008434;28;20196;-84
2023/02/03 06:18:40;;;;;;;1.67;1.57;;;0.10;99.90;;;;;;4983620;28;20188;-85
2023/02/03 06:21:07;;;;;;;1.83;1.70;;;0.10;99.90;;;;;;5025896;28;20693;-84
2023/02/03 06:23:33;;;;;;;3.83;2.23;;;0.10;99.90;;;;;;5008473;28;20234;-83
2023/02/03 06:26:01;;;;;;;2.67;2.20;;;0.00;99.90;;;;;;5026613;28;20740;-86
2023/02/03 06:28:27;;;;;;;3.37;1.90;;;-0.10;99.90;;;;;;4997782;28;20657;-85
2023/02/03 06:30:52;;;;;;;3.60;2.20;;;-0.10;99.90;;;;;;5002894;28;20189;-85
2023/02/03 06:33:19;;;;;;;6.00;1.77;;;-0.10;99.90;;;;;;5033853;28;20216;-86
2023/02/03 06:35:44;;;;;;;1.60;1.50;;;-0.10;99.90;;;;;;5018366;28;20184;-85
2023/02/03 06:38:10;;;;;;;3.70;1.93;;;-0.10;99.90;;;;;;5017262;28;20188;-86
2023/02/03 06:40:36;;;;;;;2.77;2.37;;;;;;;;;;5000580;28;20217;-85
2023/02/03 06:43:02;;;;;;;2.63;1.53;;;;;;;;;;5008337;28;20203;-86
2023/02/03 06:45:28;;;;;;;2.40;2.10;;;-0.10;99.90;;;;;;5004564;28;20192;-85
2023/02/03 06:47:54;;;;;;;2.13;1.93;;;-0.10;99.90;;;;;;5033001;28;20188;-85
2023/02/03 06:50:19;;;;;;;2.20;1.80;;;-0.10;99.90;;;;;;4981977;28;20529;-86
2023/02/03 06:52:47;;;;;;;5.23;2.63;;;0.00;99.90;;;;;;4983831;28;20226;-86
2023/02/03 06:55:13;;;;;;;2.60;2.20;;;0.00;99.90;;;;;;5009684;28;20654;-86
2023/02/03 06:57:43;;;;;;;1.83;1.73;;;0.00;99.90;;;;;;5011892;28;20208;-86
2023/02/03 07:00:10;;;;;;;1.77;1.63;;;0.00;99.90;;;;;;5024582;28;20185;-86
2023/02/03 07:02:36;;;;;;;3.73;2.23;;;;;;;;;;4991141;28;20185;-85
2023/02/03 07:05:02;;;;;;;4.00;2.80;;;;;;;;;;5009033;28;20185;-86
2023/02/03 07:07:31;;;;;;;2.13;2.03;;;;;;;;;;5025135;28;20184;-86
2023/02/03 07:09:57;;;;;;;1.43;1.33;;;;;;;;;;5008419;28;20183;-85
2023/02/03 07:12:23;;;;;;;1.50;1.50;;;;;;;;;;5014715;28;20202;-86
2023/02/03 07:14:48;;;;;;;1.47;1.40;;;0.00;99.90;;;;;;5014149;28;20184;-86
2023/02/03 07:17:14;;;;;;;1.60;1.50;;;0.10;99.90;;;;;;5028641;28;20262;-86
2023/02/03 07:19:41;;;;;;;2.23;2.03;;;0.00;99.90;;;;;;4994905;28;20571;-86
2023/02/03 07:22:11;;;;;;;9.20;1.73;;;0.10;99.90;;;;;;5012778;28;20196;-86
2023/02/03 07:24:37;;;;;;;1.60;1.50;;;0.50;99.90;;;;;;5029840;28;20216;-88
2023/02/03 07:27:02;;;;;;;1.50;1.50;;;0.10;99.90;;;;;;5012129;28;20216;-84
2023/02/03 07:29:28;;;;;;;2.60;1.63;;;0.10;99.90;;;;;;5011437;28;20680;-85
2023/02/03 07:31:54;;;;;;;1.97;1.47;;;0.20;99.90;;;;;;4993739;28;20212;-86
2023/02/03 07:34:20;;;;;;;1.50;1.33;;;0.20;99.90;;;;;;5005167;28;20192;-85
2023/02/03 07:36:45;;;;;;;1.73;1.47;;;0.20;99.90;;;;;;5021060;28;20199;-82
2023/02/03 07:39:11;;;;;;;3.33;1.70;;;0.30;99.90;;;;;;5024198;28;20193;-83
2023/02/03 07:41:37;;;;;;;2.23;2.07;;;0.30;99.90;;;;;;5026216;28;20196;-86
2023/02/03 07:44:03;;;;;;;3.13;2.43;;;0.40;99.90;;;;;;5019168;28;20199;-85
2023/02/03 07:46:28;;;;;;;2.70;1.30;;;0.30;99.90;;;;;;4983086;28;20278;-86
2023/02/03 07:48:54;;;;;;;2.40;1.70;;;0.20;99.90;;;;;;5002478;28;20708;-85
2023/02/03 07:51:20;;;;;;;1.53;1.20;;;0.20;99.90;;;;;;5041312;28;20193;-85
2023/02/03 07:53:45;;;;;;;1.97;1.87;;;0.10;99.90;;;;;;5044499;28;20217;-84
2023/02/03 07:56:11;;;;;;;1.00;1.00;;;;;;;;;;5024371;28;20219;-85
2023/02/03 07:58:39;;;;;;;1.77;1.67;;;0.10;99.90;;;;;;5049772;28;20235;-84
2023/02/03 08:01:13;;;;;;;2.30;1.87;;;0.20;99.90;;;;;;5002888;28;20196;-85
2023/02/03 08:03:40;;;;;;;1.33;1.23;;;0.80;99.90;;;;;;5013873;28;20212;-86
2023/02/03 08:06:06;;;;;;;1.43;1.33;;;0.40;99.90;;;;;;4997549;28;20173;-86
2023/02/03 08:08:32;;;;;;;4.47;1.77;;;0.50;99.90;;;;;;4980279;28;20189;-86
2023/02/03 08:10:58;;;;;;;2.63;1.60;;;0.50;99.90;;;;;;4992792;28;20190;-86
2023/02/03 08:13:23;;;;;;;10.53;2.57;;;0.50;99.90;;;;;;5014859;28;20212;-87
2023/02/03 08:15:49;;;;;;;2.83;1.53;;;0.50;99.90;;;;;;5015535;28;20672;-87
2023/02/03 08:18:15;;;;;;;2.13;1.77;;;0.50;99.90;;;;;;4996333;28;20243;-86
2023/02/03 08:20:40;;;;;;;2.67;1.70;;;0.50;99.90;;;;;;4995493;28;20233;-88
2023/02/03 08:23:06;;;;;;;6.30;2.10;;;0.70;99.90;;;;;;5014014;28;20668;-87
2023/02/03 08:25:32;;;;;;;1.63;1.47;;;0.60;99.90;;;;;;5012746;28;20188;-87
2023/02/03 08:27:58;;;;;;;3.47;1.73;;;;;;;;;;4984865;28;20603;-86
2023/02/03 08:30:24;;;;;;;1.30;1.23;;;0.70;99.90;;;;;;5039908;28;20194;-86
2023/02/03 08:32:50;;;;;;;2.30;1.20;;;;;;;;;;5026800;28;20196;-86
2023/02/03 08:35:17;;;;;;;2.50;1.30;;;0.60;99.90;;;;;;5043759;28;20191;-88
2023/02/03 08:37:43;;;;;;;1.60;1.50;;;;;;;;;;5005351;28;20173;-87
2023/02/03 08:40:10;;;;;;;2.53;1.67;;;2.80;99.90;;;;;;5025137;28;20176;-87
2023/02/03 08:42:38;;;;;;;1.57;1.20;;;0.80;99.90;;;;;;5016248;28;20189;-87
2023/02/03 08:45:04;;;;;;;2.60;2.00;;;0.80;99.90;;;;;;5005337;28;20212;-87
2023/02/03 08:47:30;;;;;;;1.70;1.13;;;0.80;99.90;;;;;;5003099;28;20181;-87
2023/02/03 08:49:56;;;;;;;2.90;2.43;;;0.80;99.90;;;;;;5018587;28;20216;-84
2023/02/03 08:52:22;;;;;;;1.10;1.10;;;0.80;99.90;;;;;;4998962;28;20662;-84
2023/02/03 08:54:48;;;;;;;0.90;0.90;;;0.90;99.90;;;;;;5023195;28;20224;-86
2023/02/03 08:57:14;;;;;;;0.90;0.90;;;;;;;;;;4999091;28;20239;-85
2023/02/03 08:59:42;;;;;;;1.27;1.27;;;0.80;98.10;;;;;;4979759;28;20232;-86
2023/02/03 09:02:15;;;;;;;1.30;1.30;;;0.80;99.60;;;;;;5013564;28;20697;-85
2023/02/03 09:04:41;;;;;;;1.83;1.20;;;0.80;99.90;;;;;;5033060;28;20164;-84
2023/02/03 09:07:07;;;;;;;1.30;1.30;;;;;;;;;;5015146;28;20638;-85
2023/02/03 09:09:33;;;;;;;1.10;1.07;;;;;;;;;;5015327;28;20662;-85
2023/02/03 09:12:04;;;;;;;0.90;0.90;;;0.80;99.90;;;;;;5032095;28;20209;-85
2023/02/03 09:14:34;;;;;;;1.63;1.20;;;0.80;99.90;;;;;;4999707;28;20203;-85
2023/02/03 09:17:02;;;;;;;0.90;0.90;;;0.80;99.90;;;;;;5032874;28;20183;-86
2023/02/03 09:19:28;;;;;;;1.70;1.60;;;;;;;;;;5014931;28;20184;-86
2023/02/03 09:21:56;;;;;;;1.43;1.33;;;;;;;;;;5033589;28;20264;-85
2023/02/03 09:24:21;;;;;;;1.13;1.03;;;0.60;99.90;;;;;;5036142;28;20177;-87
2023/02/03 09:26:47;;;;;;;1.27;1.27;;;-0.40;99.90;;;;;;5016379;28;20280;-87
2023/02/03 09:29:13;;;;;;;0.80;0.80;;;0.60;99.90;;;;;;4999048;28;20208;-86
2023/02/03 09:31:40;;;;;;;1.40;1.30;;;0.50;99.90;;;;;;5032926;28;20272;-85
2023/02/03 09:34:06;;;;;;;0.90;0.90;;;;;;;;;;5018391;28;20188;-85
2023/02/03 09:36:33;;;;;;;3.37;2.67;;;;;;;;;;5036827;28;20210;-86
2023/02/03 09:38:58;;;;;;;2.50;1.50;;;0.60;99.90;;;;;;5018282;28;20189;-85
2023/02/03 09:41:30;;;;;;;1.00;1.00;;;0.70;99.90;;;;;;5036252;28;20533;-85
2023/02/03 09:43:56;;;;;;;0.90;0.90;;;;;;;;;;5016981;28;20195;-87
2023/02/03 09:46:27;;;;;;;3.43;2.03;;;0.60;99.90;;;;;;5018284;28;20193;-86
2023/02/03 09:49:01;;;;;;;1.47;1.30;;;0.90;99.90;;;;;;5018265;28;20185;-87
2023/02/03 09:51:45;;;;;;;1.43;1.43;;;0.90;99.90;;;;;;5018468;28;20175;-87
2023/02/03 09:54:11;;;;;;;0.90;0.90;;;;;;;;;;5017824;28;21009;-86
2023/02/03 09:56:39;;;;;;;0.83;0.83;;;1.00;99.60;;;;;;5036078;28;20174;-86
2023/02/03 09:59:09;;;;;;;1.50;1.40;;;1.00;99.90;;;;;;5037246;28;20177;-86
2023/02/03 10:02:08;;;;;;;73.00;9.03;;;0.90;99.90;;;;;;5019201;28;20294;-85
2023/02/03 10:04:57;;;;;;;2.63;2.40;;;0.90;99.90;;;;;;5017829;28;20184;-85
2023/02/03 10:07:48;;;;;;;0.90;0.90;;;1.00;99.20;;;;;;5000515;28;20199;-85
2023/02/03 10:10:24;;;;;;;1.60;1.50;;;1.00;97.80;;;;;;4978406;28;20279;-84
2023/02/03 10:13:11;;;;;;;1.00;0.90;;;0.80;97.60;;;;;;5017551;28;20202;-85
2023/02/03 10:16:22;;;;;;;0.97;0.97;;;0.90;98.00;;;;;;5017941;28;20184;-84
2023/02/03 10:18:54;;;;;;;4.30;2.00;;;1.00;99.60;;;;;;5043104;28;20183;-85
2023/02/03 10:22:01;;;;;;;20.83;3.07;;;1.10;99.90;;;;;;5020217;28;20238;-85
2023/02/03 10:24:46;;;;;;;2.23;2.00;;;1.20;99.70;;;;;;5015825;28;20200;-86
2023/02/03 10:27:18;;;;;;;2.43;2.23;;;1.20;98.00;;;;;;5035124;28;20224;-85
2023/02/03 10:29:43;;;;;;;48.87;20.53;;;1.20;97.70;;;;;;5017658;28;20246;-84
2023/02/03 10:32:11;;;;;;;2.93;1.53;;;1.10;95.90;;;;;;5000729;28;20603;-84
2023/02/03 10:34:37;;;;;;;2.63;1.80;;;1.00;96.50;;;;;;5017387;28;20185;-85
2023/02/03 10:37:24;;;;;;;8.20;6.20;;;0.90;98.20;;;;;;5034771;28;20626;-85
2023/02/03 10:39:51;;;;;;;115.40;26.30;;;1.00;98.40;;;;;;5017014;28;20184;-84
2023/02/03 10:42:18;;;;;;;6.17;2.20;;;1.00;99.10;;;;;;5000692;28;20396;-83
2023/02/03 10:45:03;;;;;;;8.60;2.40;;;1.00;99.90;;;;;;5034700;28;20538;-83
2023/02/03 10:47:49;;;;;;;3.40;1.97;;;1.10;99.90;;;;;;5035493;28;20180;-86
2023/02/03 10:50:20;;;;;;;40.80;4.37;;;1.10;99.90;;;;;;5017036;28;20203;-85
2023/02/03 10:52:46;;;;;;;6.00;2.47;;;1.20;99.90;;;;;;5016792;28;20213;-85
2023/02/03 10:55:21;;;;;;;1.90;1.80;;;1.40;99.70;;;;;;5016692;28;20184;-85
2023/02/03 10:57:48;;;;;;;0.97;0.97;;;1.40;99.90;;;;;;5016820;28;20219;-85
2023/02/03 11:00:16;;;;;;;1.23;1.23;;;1.60;98.80;;;;;;5000180;28;20187;-85
2023/02/03 11:02:42;;;;;;;2.30;1.57;;;1.30;96.40;;;;;;5016908;28;20192;-85
2023/02/03 11:05:20;;;;;;;1.67;1.53;;;1.20;97.10;;;;;;5016406;28;20542;-85
2023/02/03 11:07:47;;;;;;;2.43;1.53;;;1.30;99.10;;;;;;5034629;28;20262;-85
2023/02/03 11:10:35;;;;;;;0.90;0.90;;;1.60;98.80;;;;;;5033996;28;20180;-86
2023/02/03 11:13:22;;;;;;;1.57;1.47;;;1.70;97.60;;;;;;5016501;28;20212;-85
2023/02/03 11:15:54;;;;;;;0.93;0.90;;;1.80;96.20;;;;;;5032630;28;20192;-84
2023/02/03 11:18:37;;;;;;;2.87;1.10;;;1.80;94.80;;;;;;5016109;28;20220;-85
2023/02/03 11:21:36;;;;;;;1.00;1.00;;;1.80;94.50;;;;;;5016864;28;20588;-84
2023/02/03 11:24:10;;;;;;;3.13;2.17;;;1.70;95.00;;;;;;5018760;28;20189;-83
2023/02/03 11:26:53;;;;;;;0.93;0.87;;;1.60;96.70;;;;;;5033304;28;20185;-83
2023/02/03 11:29:33;;;;;;;1.87;1.40;;;1.60;96.90;;;;;;5036165;28;20194;-84
2023/02/03 11:32:02;;;;;;;1.30;1.20;;;1.60;96.90;;;;;;5040241;28;20640;-83
2023/02/03 11:34:32;;;;;;;0.90;0.90;;;1.80;97.40;;;;;;5036084;28;20187;-84
2023/02/03 11:37:30;;;;;;;2.50;1.37;;;1.80;96.30;;;;;;5033697;28;20171;-84
2023/02/03 11:40:09;;;;;;;1.53;0.77;;;2.00;96.70;;;;;;5034119;28;20200;-84
2023/02/03 11:42:40;;;;;;;5.77;1.93;;;1.90;97.30;;;;;;5015737;28;20183;-83
2023/02/03 11:45:25;;;;;;;1.83;1.13;;;2.10;97.60;;;;;;5033547;28;20191;-84
2023/02/03 11:48:13;;;;;;;1.53;1.33;;;1.90;97.10;;;;;;5033556;28;20165;-83
2023/02/03 11:50:53;;;;;;;2.20;2.00;;;1.90;96.30;;;;;;4998469;28;20642;-83
2023/02/03 11:53:29;;;;;;;5.20;1.17;;;2.00;96.30;;;;;;5033455;28;20331;-84
2023/02/03 11:56:20;;;;;;;4.17;3.17;;;1.80;97.50;;;;;;5033051;28;20175;-83
2023/02/03 11:58:57;;;;;;;3.70;2.50;;;1.80;98.40;;;;;;5033721;28;20219;-84
2023/02/03 12:01:51;;;;;;;1.07;1.00;;;1.90;98.60;;;;;;5015757;28;20247;-85
2023/02/03 12:04:23;;;;;;;1.03;1.03;;;1.60;97.20;;;;;;5033499;28;20194;-84
2023/02/03 12:06:58;;;;;;;3.47;1.87;;;1.50;98.30;;;;;;5016255;28;20201;-84
2023/02/03 12:09:48;;;;;;;1.00;1.00;;;1.70;99.90;;;;;;5032518;28;20208;-83
2023/02/03 12:12:28;;;;;;;1.20;1.20;;;1.50;99.90;;;;;;5016870;28;20610;-85
2023/02/03 12:14:59;;;;;;;1.90;1.23;;;1.50;99.90;;;;;;5018407;28;20274;-84
2023/02/03 12:18:10;;;;;;;3.47;1.33;;;1.50;99.90;;;;;;5033010;28;20212;-83
2023/02/03 12:20:44;;;;;;;14.53;5.87;;;1.50;99.90;;;;;;5014688;28;20320;-83
2023/02/03 12:23:10;;;;;;;3.30;2.93;;;;;;;;;;5015516;28;20305;-85
2023/02/03 12:25:44;;;;;;;4.23;2.70;;;1.80;99.90;;;;;;5015691;28;20629;-85
2023/02/03 12:28:25;;;;;;;3.33;1.93;;;2.00;99.90;;;;;;5033695;28;20178;-84
2023/02/03 12:30:58;;;;;;;2.50;1.47;;;2.00;99.90;;;;;;5015640;28;20187;-83
2023/02/03 12:33:39;;;;;;;5.13;1.53;;;2.10;99.90;;;;;;5042917;28;20200;-83
2023/02/03 12:36:12;;;;;;;14.90;2.90;;;2.20;99.90;;;;;;5039373;28;20182;-84
2023/02/03 12:38:51;;;;;;;5.93;1.90;;;2.30;99.90;;;;;;5019217;28;20261;-83
2023/02/03 12:41:30;;;;;;;2.77;1.50;;;2.10;99.90;;;;;;5039181;28;20572;-84
2023/02/03 12:44:28;;;;;;;3.57;2.07;;;2.10;99.90;;;;;;5019686;28;20191;-82
2023/02/03 12:47:15;;;;;;;42.23;15.90;;;2.40;99.90;;;;;;4994773;28;20286;-83
2023/02/03 12:49:51;;;;;;;4.77;2.70;;;2.60;99.90;;;;;;5006037;28;20215;-83
2023/02/03 12:52:52;;;;;;;2.77;2.30;;;2.70;99.90;;;;;;5016221;28;20214;-84
2023/02/03 12:55:18;;;;;;;8.70;3.20;;;;;;;;;;4961850;28;20680;-85
2023/02/03 12:57:59;;;;;;;12.80;5.97;;;2.80;99.90;;;;;;5031705;28;20184;-84
2023/02/03 13:00:30;;;;;;;3.67;2.23;;;2.70;99.90;;;;;;5034913;28;20194;-83
2023/02/03 13:03:09;;;;;;;2.43;1.50;;;2.60;99.90;;;;;;5052977;28;20180;-84
2023/02/03 13:05:47;;;;;;;3.80;2.23;;;2.50;99.90;;;;;;5034902;28;20176;-85
2023/02/03 13:08:35;;;;;;;2.63;1.73;;;2.20;99.90;;;;;;5037285;28;20190;-85
2023/02/03 13:11:26;;;;;;;8.00;2.53;;;2.10;99.90;;;;;;5056918;28;20171;-85
2023/02/03 13:14:14;;;;;;;6.40;3.50;;;2.00;99.90;;;;;;5035784;28;20211;-84
2023/02/03 13:16:44;;;;;;;23.47;5.33;;;1.80;99.90;;;;;;5018709;28;20268;-84
2023/02/03 13:19:19;;;;;;;8.43;5.27;;;1.50;99.90;;;;;;5018248;28;20272;-85
2023/02/03 13:21:47;;;;;;;5.47;3.57;;;1.50;99.90;;;;;;5036836;28;20286;-84
2023/02/03 13:24:13;;;;;;;5.50;2.90;;;1.60;99.90;;;;;;5036487;28;20275;-84
2023/02/03 13:26:53;;;;;;;8.23;2.53;;;1.50;99.90;;;;;;5005825;28;20594;-84